Time;durP1;ratioP1;P1;durP2;ratioP2;P2;SDS_P1;SDS_P2;PMS_P1;PMS_P2;Temp;Humidity;BMP_temperature;BMP_pressure;BME280_temperature;BME280_humidity;BME280_pressure;Samples;Min_cycle;Max_cycle;Signal;HPM_P1;HPM_P2
2022/08/03 00:00:05;;;;;;;0.10;0.10;;;21.40;80.80;;;22.57;68.72;101439.38;2022740;29;20068;-74
2022/08/03 00:01:17;;;;;;;0.10;0.10;;;21.40;81.50;;;22.53;69.07;101443.34;2023898;29;20619;-73
2022/08/03 00:02:20;;;;;;;0.03;0.03;;;21.30;80.90;;;22.50;69.08;101435.88;2022646;29;20055;-74
2022/08/03 00:03:23;;;;;;;0.00;0.00;;;21.30;81.00;;;22.45;69.41;101444.56;2015115;29;20061;-74
2022/08/03 00:04:27;;;;;;;0.00;0.00;;;21.30;81.20;;;22.41;69.31;101435.56;2014580;29;20053;-74
2022/08/03 00:05:37;;;;;;;0.10;0.10;;;21.30;81.20;;;22.36;69.30;101434.03;2014059;29;20061;-73
2022/08/03 00:06:43;;;;;;;0.10;0.10;;;21.30;81.30;;;22.35;69.52;101437.19;2022651;29;20477;-74
2022/08/03 00:07:46;;;;;;;0.10;0.10;;;21.20;81.40;;;22.30;69.84;101448.63;2021926;29;20509;-74
2022/08/03 00:08:51;;;;;;;0.10;0.10;;;21.20;81.40;;;22.23;69.90;101436.47;2021280;29;20525;-74
2022/08/03 00:09:54;;;;;;;0.10;0.10;;;21.20;81.50;;;22.17;69.78;101438.09;2018506;29;20185;-74
2022/08/03 00:10:58;;;;;;;0.10;0.10;;;21.20;81.60;;;22.15;70.39;101436.97;2011106;29;20203;-73
2022/08/03 00:12:01;;;;;;;0.10;0.10;;;21.10;81.70;;;22.13;70.27;101437.38;2013372;29;20084;-73
2022/08/03 00:13:04;;;;;;;0.10;0.10;;;21.10;81.80;;;22.12;70.52;101438.53;2022760;29;20099;-73
2022/08/03 00:14:07;;;;;;;0.10;0.10;;;21.10;81.80;;;22.12;70.56;101441.28;2031271;29;20649;-73
2022/08/03 00:15:11;;;;;;;0.10;0.10;;;21.10;81.90;;;22.13;70.32;101439.31;2031325;29;20079;-73
2022/08/03 00:16:18;;;;;;;0.10;0.10;;;21.10;81.90;;;22.10;70.45;101431.88;2023470;29;20060;-73
2022/08/03 00:17:25;;;;;;;0.10;0.10;;;21.10;82.00;;;22.09;70.20;101441.31;2017669;29;20048;-73
2022/08/03 00:18:27;;;;;;;0.10;0.10;;;21.10;81.90;;;22.09;70.15;101435.81;2025802;29;20052;-73
2022/08/03 00:19:31;;;;;;;0.10;0.10;;;21.10;82.00;;;22.08;70.24;101446.03;2015727;29;20424;-73
2022/08/03 00:20:34;;;;;;;0.10;0.10;;;21.10;82.00;;;22.09;70.60;101433.06;2015034;29;20733;-73
2022/08/03 00:21:38;;;;;;;0.17;0.17;;;21.10;82.00;;;22.06;70.47;101440.16;2011003;29;20050;-73
2022/08/03 00:22:41;;;;;;;0.10;0.10;;;21.10;81.90;;;22.04;70.12;101439.78;2022178;29;20060;-73
2022/08/03 00:23:44;;;;;;;0.10;0.10;;;21.00;81.90;;;22.04;70.32;101436.25;2030745;29;20052;-73
2022/08/03 00:24:53;;;;;;;;;;;21.00;81.90;;;22.03;70.46;101435.47;2031467;29;20472;-73
2022/08/03 00:25:57;;;;;;;0.10;0.10;;;21.00;82.20;;;22.03;69.90;101429.97;2028477;29;19977;-77
2022/08/03 00:26:59;;;;;;;0.10;0.10;;;20.90;82.00;;;21.99;69.88;101434.69;2031136;29;20528;-76
2022/08/03 00:28:03;;;;;;;0.10;0.10;;;21.00;82.00;;;21.99;70.58;101433.94;2026565;29;20091;-77
2022/08/03 00:29:05;;;;;;;0.10;0.10;;;21.00;82.00;;;21.95;70.22;101424.91;2027370;29;20546;-76
2022/08/03 00:30:10;;;;;;;0.10;0.10;;;20.90;82.10;;;21.95;70.56;101431.19;2025457;29;20064;-76
2022/08/03 00:31:12;;;;;;;0.10;0.10;;;20.90;82.10;;;21.95;70.46;101428.44;2032260;29;20579;-77
2022/08/03 00:32:16;;;;;;;0.10;0.10;;;20.90;82.10;;;21.94;70.88;101429.66;2032228;29;20578;-76
2022/08/03 00:33:22;;;;;;;0.10;0.10;;;20.90;82.30;;;21.95;70.85;101422.94;2024438;29;20056;-76
2022/08/03 00:34:25;;;;;;;0.20;0.20;;;20.90;82.30;;;21.93;70.51;101419.81;2024664;29;20072;-76
2022/08/03 00:35:49;;;;;;;0.20;0.20;;;20.90;82.30;;;22.01;70.75;101426.84;2030731;29;20048;-76
2022/08/03 00:36:53;;;;;;;0.10;0.10;;;20.90;82.30;;;22.02;70.46;101424.88;2029590;29;20052;-76
2022/08/03 00:37:57;;;;;;;0.10;0.10;;;20.90;82.40;;;22.00;70.31;101428.03;2020205;29;20428;-75
2022/08/03 00:39:00;;;;;;;0.10;0.10;;;20.90;82.50;;;22.00;70.49;101433.53;2032040;29;20090;-76
2022/08/03 00:40:04;;;;;;;0.10;0.10;;;20.90;82.50;;;21.99;70.59;101423.69;2030888;29;20523;-76
2022/08/03 00:41:07;;;;;;;0.10;0.10;;;20.90;82.60;;;22.02;70.77;101422.88;2032105;29;20092;-76
2022/08/03 00:42:10;;;;;;;0.10;0.10;;;20.90;82.60;;;22.05;70.18;101424.06;2037165;29;20063;-76
2022/08/03 00:43:13;;;;;;;0.10;0.10;;;20.90;82.70;;;22.05;70.34;101416.59;2032588;29;20056;-76
2022/08/03 00:44:16;;;;;;;0.10;0.10;;;20.90;82.60;;;22.05;70.77;101437.81;2030655;29;20087;-76
2022/08/03 00:45:21;;;;;;;0.10;0.10;;;20.90;82.90;;;22.02;70.24;101422.88;2026734;29;20154;-76
2022/08/03 00:46:24;;;;;;;0.20;0.20;;;20.90;82.60;;;22.03;70.63;101423.69;2029457;29;20044;-76
2022/08/03 00:47:27;;;;;;;0.20;0.20;;;20.90;82.70;;;22.06;70.10;101425.63;2029197;29;20132;-77
2022/08/03 00:48:30;;;;;;;0.10;0.10;;;20.90;82.80;;;22.06;70.34;101431.91;2033026;29;20131;-76
2022/08/03 00:49:35;;;;;;;0.20;0.20;;;20.90;82.80;;;22.09;70.56;101424.81;2031028;29;20856;-76
2022/08/03 00:50:42;;;;;;;0.20;0.20;;;20.90;82.80;;;22.08;70.68;101426.00;2020460;29;20536;-76
2022/08/03 00:51:45;;;;;;;0.10;0.10;;;20.90;82.80;;;22.09;70.14;101422.84;2020270;29;20061;-76
2022/08/03 00:52:52;;;;;;;0.20;0.20;;;20.90;82.80;;;22.08;70.44;101418.53;2022729;29;20060;-77
2022/08/03 00:53:55;;;;;;;0.10;0.10;;;20.90;82.90;;;22.07;70.52;101419.72;2027645;29;20062;-77
2022/08/03 00:54:58;;;;;;;0.20;0.20;;;20.90;82.90;;;22.08;70.55;101415.78;2025573;29;20111;-77
2022/08/03 00:56:01;;;;;;;0.10;0.10;;;20.90;82.90;;;22.06;70.61;101418.16;2032392;29;20094;-77
2022/08/03 00:57:06;;;;;;;0.10;0.10;;;20.90;82.90;;;22.06;70.53;101423.66;2025035;29;20087;-76
2022/08/03 00:58:10;;;;;;;0.13;0.13;;;20.80;82.90;;;22.07;70.07;101416.19;2017153;29;20084;-77
2022/08/03 00:59:15;;;;;;;0.10;0.10;;;20.80;83.00;;;22.07;70.69;101416.97;2031719;29;20056;-76
2022/08/03 01:00:22;;;;;;;0.10;0.10;;;20.80;83.00;;;22.05;70.74;101407.56;2028645;29;20134;-74
2022/08/03 01:01:25;;;;;;;0.10;0.10;;;20.80;83.00;;;21.99;70.93;101414.69;2027158;29;20105;-76
2022/08/03 01:02:33;;;;;;;0.10;0.10;;;20.80;83.00;;;21.91;71.00;101407.66;2037645;29;20051;-76
2022/08/03 01:03:37;;;;;;;0.13;0.13;;;20.80;83.00;;;21.85;70.88;101412.03;2031895;29;20131;-76
2022/08/03 01:04:39;;;;;;;0.20;0.20;;;20.80;82.90;;;21.80;71.15;101399.47;2032821;29;20131;-76
2022/08/03 01:06:08;;;;;;;0.10;0.10;;;20.80;83.00;;;21.78;71.70;101407.34;2032474;29;20180;-76
2022/08/03 01:07:20;;;;;;;0.10;0.10;;;20.80;83.00;;;21.78;71.58;101412.84;2018925;29;20057;-74
2022/08/03 01:08:36;;;;;;;0.10;0.10;;;20.80;83.20;;;21.74;71.53;101406.56;2020282;29;20199;-73
2022/08/03 01:09:56;;;;;;;0.10;0.10;;;20.70;83.20;;;21.68;71.43;101408.16;2034708;29;20878;-74
2022/08/03 01:11:11;;;;;;;0.17;0.17;;;20.70;83.20;;;21.62;71.85;101401.53;2024627;29;20056;-75
2022/08/03 01:12:25;;;;;;;0.10;0.10;;;20.70;83.30;;;21.59;71.71;101398.81;2016575;29;20084;-76
2022/08/03 01:13:40;;;;;;;0.10;0.10;;;20.70;83.30;;;21.56;72.11;101402.34;2018396;29;20085;-75
2022/08/03 01:15:13;;;;;;;0.10;0.10;;;20.70;83.30;;;21.58;72.06;101406.25;2026312;29;20131;-76
2022/08/03 01:16:25;;;;;;;0.10;0.10;;;20.60;83.40;;;21.56;71.53;101394.91;2024557;29;20057;-75
2022/08/03 01:17:50;;;;;;;0.10;0.10;;;20.60;83.40;;;21.58;71.78;101402.75;2032624;29;20582;-76
2022/08/03 01:19:00;;;;;;;0.15;0.15;;;20.60;83.60;;;21.58;71.76;101403.50;2031142;29;20128;-76
2022/08/03 01:20:10;;;;;;;0.10;0.10;;;20.60;83.70;;;21.60;72.19;101412.13;2030683;29;20164;-76
2022/08/03 01:21:24;;;;;;;0.10;0.10;;;20.60;84.40;;;21.63;71.97;101410.53;2030395;29;20060;-77
2022/08/03 01:22:55;;;;;;;0.20;0.20;;;20.60;84.00;;;21.64;71.56;101407.41;2032099;29;20463;-75
2022/08/03 01:24:19;;;;;;;0.10;0.10;;;20.60;84.00;;;21.64;72.06;101406.63;2012725;29;20053;-73
2022/08/03 01:25:37;;;;;;;0.10;0.10;;;20.50;84.20;;;21.63;72.14;101411.34;2037458;29;20058;-73
2022/08/03 01:27:07;;;;;;;0.10;0.10;;;20.50;84.10;;;21.58;71.98;101403.50;2037954;29;20134;-73
2022/08/03 01:28:24;;;;;;;;;;;20.50;84.40;;;21.57;71.67;101403.91;2033667;29;20087;-73
2022/08/03 01:30:07;;;;;;;0.10;0.10;;;20.50;84.70;;;21.54;71.56;101401.97;2026051;29;19931;-73
2022/08/03 01:31:14;;;;;;;0.10;0.10;;;20.50;84.60;;;21.52;71.73;101405.13;2033574;29;20051;-73
2022/08/03 01:32:22;;;;;;;0.10;0.10;;;20.50;84.10;;;21.50;72.15;101404.72;2036535;29;20060;-74
2022/08/03 01:33:56;;;;;;;0.10;0.10;;;20.50;84.10;;;21.49;72.26;101400.41;2037117;29;20087;-72
2022/08/03 01:35:04;;;;;;;0.10;0.10;;;20.50;84.20;;;21.49;72.28;101407.88;2038020;29;20126;-74
2022/08/03 01:36:12;;;;;;;0.10;0.10;;;20.50;84.20;;;21.48;72.61;101398.06;2037000;29;20122;-73
2022/08/03 01:37:23;;;;;;;0.10;0.10;;;20.50;84.20;;;21.48;72.80;101395.31;2031322;29;20060;-75
2022/08/03 01:38:33;;;;;;;0.10;0.10;;;20.50;84.30;;;21.45;72.54;101399.66;2034283;29;20083;-73
2022/08/03 01:39:38;;;;;;;0.10;0.10;;;20.50;84.50;;;21.43;72.83;101396.53;2039083;29;20047;-73
2022/08/03 01:40:44;;;;;;;0.10;0.10;;;20.50;84.40;;;21.39;73.04;101398.50;2030645;29;20052;-73
2022/08/03 01:41:58;;;;;;;0.10;0.10;;;20.50;84.50;;;21.39;73.12;101405.97;2033410;29;20083;-75
2022/08/03 01:43:03;;;;;;;0.10;0.10;;;20.50;84.70;;;21.37;73.33;101402.84;2029766;29;20558;-74
2022/08/03 01:44:13;;;;;;;0.10;0.10;;;20.40;84.60;;;21.36;73.72;101391.06;2029894;29;20598;-74
2022/08/03 01:45:36;;;;;;;0.20;0.20;;;20.40;84.70;;;21.37;73.48;101397.34;2038224;29;20119;-73
2022/08/03 01:46:40;;;;;;;0.10;0.10;;;20.40;84.80;;;21.33;73.14;101391.88;2030263;29;20075;-74
2022/08/03 01:47:52;;;;;;;0.10;0.10;;;20.40;84.90;;;21.31;73.21;101388.72;2037708;29;20199;-74
2022/08/03 01:48:56;;;;;;;0.20;0.20;;;20.40;84.90;;;21.32;73.11;101393.06;2038103;29;20055;-74
2022/08/03 01:50:02;;;;;;;0.10;0.10;;;20.40;85.00;;;21.32;73.25;101395.81;2037199;29;20047;-73
2022/08/03 01:51:05;;;;;;;0.10;0.10;;;20.30;85.00;;;21.30;73.51;101389.91;2037190;29;20423;-74
2022/08/03 01:52:11;;;;;;;0.20;0.20;;;20.40;85.00;;;21.29;73.69;101396.59;2037353;29;20591;-73
2022/08/03 01:53:15;;;;;;;0.20;0.20;;;20.30;85.10;;;21.28;73.41;101388.75;2036664;29;20595;-73
2022/08/03 01:54:20;;;;;;;0.20;0.20;;;20.30;85.00;;;21.24;73.68;101399.75;2030393;29;20098;-74
2022/08/03 01:55:27;;;;;;;0.10;0.10;;;20.30;85.10;;;21.23;73.87;101392.69;2031877;29;20432;-77
2022/08/03 01:56:31;;;;;;;0.13;0.13;;;20.30;85.10;;;21.18;73.39;101382.13;2037060;29;20431;-77
2022/08/03 01:57:36;;;;;;;0.10;0.10;;;20.30;85.10;;;21.23;73.90;101387.19;2036476;29;20797;-76
2022/08/03 01:59:01;;;;;;;0.10;0.10;;;20.30;85.20;;;21.21;73.50;101383.28;2040178;29;20541;-76
2022/08/03 02:00:08;;;;;;;0.10;0.10;;;20.30;85.20;;;21.23;73.58;101392.69;2031155;29;20056;-76
2022/08/03 02:01:15;;;;;;;0.10;0.10;;;20.20;85.20;;;21.23;73.48;101376.22;2032625;29;20436;-76
2022/08/03 02:02:20;;;;;;;0.10;0.10;;;20.30;85.20;;;21.27;73.09;101387.19;2032521;29;20051;-76
2022/08/03 02:03:40;;;;;;;0.10;0.10;;;20.30;85.20;;;21.27;73.25;101387.19;2033753;29;20780;-76
2022/08/03 02:05:07;;;;;;;0.10;0.10;;;20.30;85.70;;;21.26;73.28;101385.63;2037790;29;20055;-76
2022/08/03 02:06:15;;;;;;;0.10;0.10;;;20.20;85.00;;;21.25;72.84;101384.06;2031007;29;20748;-75
2022/08/03 02:07:41;;;;;;;0.10;0.10;;;20.20;85.00;;;21.26;73.18;101380.13;2026359;29;20714;-75
2022/08/03 02:08:47;;;;;;;0.10;0.10;;;20.20;84.90;;;21.24;73.33;101383.28;2030286;29;20107;-76
2022/08/03 02:09:52;;;;;;;0.03;0.03;;;20.20;84.90;;;21.19;73.17;101383.69;2037643;29;20052;-76
2022/08/03 02:10:59;;;;;;;0.10;0.10;;;20.20;84.90;;;21.17;73.19;101377.81;2030515;29;20075;-75
2022/08/03 02:12:02;;;;;;;0.10;0.10;;;20.20;84.80;;;21.16;73.43;101376.25;2029673;29;20099;-75
2022/08/03 02:13:08;;;;;;;0.10;0.10;;;20.20;84.90;;;21.16;73.15;101381.75;2030696;29;20143;-76
2022/08/03 02:14:13;;;;;;;0.10;0.10;;;20.30;84.90;;;21.20;72.99;101379.00;2025247;29;20052;-76
2022/08/03 02:15:18;;;;;;;0.10;0.10;;;20.20;84.90;;;21.19;73.26;101380.16;2023521;29;20052;-76
2022/08/03 02:16:23;;;;;;;0.13;0.13;;;20.20;85.00;;;21.19;73.55;101375.44;2030766;29;20727;-76
2022/08/03 02:17:28;;;;;;;0.10;0.10;;;20.20;85.00;;;21.18;73.30;101376.66;2021360;29;20529;-76
2022/08/03 02:18:43;;;;;;;0.10;0.10;;;20.20;85.00;;;21.19;73.13;101372.72;2025621;29;20088;-77
2022/08/03 02:19:51;;;;;;;0.10;0.10;;;20.20;85.00;;;21.20;73.25;101371.50;2038287;29;20439;-77
2022/08/03 02:20:55;;;;;;;0.10;0.10;;;20.20;85.00;;;21.20;73.01;101368.00;2039469;29;20063;-76
2022/08/03 02:21:58;;;;;;;0.10;0.10;;;20.20;85.00;;;21.20;73.46;101370.75;2030905;29;20050;-76
2022/08/03 02:23:05;;;;;;;0.10;0.10;;;20.20;84.90;;;21.23;73.16;101375.44;2024062;29;20080;-77
2022/08/03 02:24:08;;;;;;;0.10;0.10;;;20.30;84.90;;;21.23;72.92;101381.69;2028882;29;20060;-76
2022/08/03 02:25:14;;;;;;;0.10;0.10;;;20.30;84.90;;;21.25;72.83;101371.09;2029114;29;20066;-73
2022/08/03 02:26:19;;;;;;;0.10;0.10;;;20.30;84.90;;;21.25;72.82;101376.59;2029514;29;20055;-74
2022/08/03 02:27:24;;;;;;;0.10;0.10;;;20.20;84.80;;;21.24;73.14;101382.50;2029735;29;20534;-73
2022/08/03 02:28:33;;;;;;;0.17;0.17;;;20.20;84.80;;;21.22;73.13;101382.09;2028730;29;20055;-75
2022/08/03 02:29:39;;;;;;;0.10;0.10;;;20.20;84.90;;;21.23;72.96;101376.22;2029577;29;20055;-76
2022/08/03 02:30:45;;;;;;;0.10;0.10;;;20.20;84.80;;;21.25;73.04;101375.84;2028452;29;20052;-76
2022/08/03 02:32:03;;;;;;;0.10;0.10;;;20.20;84.90;;;21.26;72.96;101380.94;2028975;29;20062;-76
2022/08/03 02:33:11;;;;;;;0.10;0.10;;;20.20;84.90;;;21.27;72.66;101377.00;2030302;29;20052;-74
2022/08/03 02:34:16;;;;;;;0.20;0.20;;;20.20;84.80;;;21.27;72.76;101376.19;2029546;29;20088;-73
2022/08/03 02:35:21;;;;;;;0.05;0.05;;;20.20;84.80;;;21.26;72.57;101375.44;2029028;29;20056;-73
2022/08/03 02:36:30;;;;;;;0.17;0.17;;;20.20;84.80;;;21.26;72.88;101364.44;2029178;29;20080;-73
2022/08/03 02:37:52;;;;;;;0.10;0.10;;;20.20;84.90;;;21.26;72.66;101369.94;2021824;29;20052;-74
2022/08/03 02:38:58;;;;;;;0.10;0.10;;;20.20;84.90;;;21.27;72.81;101373.44;2023415;29;20071;-73
2022/08/03 02:40:05;;;;;;;0.10;0.10;;;20.20;84.90;;;21.27;72.57;101377.00;2029371;29;20051;-73
2022/08/03 02:41:15;;;;;;;0.10;0.10;;;20.20;85.00;;;21.28;72.46;101366.78;2029416;29;20067;-74
2022/08/03 02:42:23;;;;;;;0.10;0.10;;;20.20;85.00;;;21.26;72.56;101364.44;2021871;29;20056;-74
2022/08/03 02:43:27;;;;;;;0.10;0.10;;;20.20;85.00;;;21.26;72.65;101367.19;2029478;29;20086;-73
2022/08/03 02:44:47;;;;;;;0.10;0.10;;;20.20;85.00;;;21.22;72.88;101357.38;2029791;29;20052;-73
2022/08/03 02:45:54;;;;;;;0.10;0.10;;;20.20;85.10;;;21.20;72.93;101366.03;2030072;29;20056;-73
2022/08/03 02:47:07;;;;;;;0.10;0.10;;;20.20;85.10;;;21.17;72.84;101361.34;2021426;29;20469;-74
2022/08/03 02:48:15;;;;;;;0.10;0.10;;;20.20;85.20;;;21.19;73.27;101367.22;2024005;29;20127;-74
2022/08/03 02:49:20;;;;;;;0.10;0.10;;;20.10;85.10;;;21.19;72.89;101366.41;2021996;29;20087;-73
2022/08/03 02:50:45;;;;;;;0.10;0.10;;;20.10;85.20;;;21.20;73.13;101360.53;2028319;29;20115;-74
2022/08/03 02:51:51;;;;;;;0.10;0.10;;;20.10;85.40;;;21.20;72.97;101366.03;2029623;29;20087;-73
2022/08/03 02:52:57;;;;;;;0.10;0.10;;;20.10;85.40;;;21.18;73.28;101368.41;2021434;29;20969;-73
2022/08/03 02:54:05;;;;;;;0.20;0.20;;;20.10;85.40;;;21.18;72.97;101354.69;2023159;29;20096;-73
2022/08/03 02:55:11;;;;;;;0.10;0.10;;;20.10;85.40;;;21.18;73.26;101357.41;2028680;29;20052;-74
2022/08/03 02:56:14;;;;;;;0.10;0.10;;;20.10;85.50;;;21.18;73.25;101354.69;2029458;29;20087;-73
2022/08/03 02:57:19;;;;;;;0.10;0.10;;;20.10;85.40;;;21.16;72.94;101348.78;2021358;29;20084;-74
2022/08/03 02:58:23;;;;;;;0.10;0.10;;;20.10;85.40;;;21.15;72.87;101352.72;2022923;29;20116;-73
2022/08/03 02:59:30;;;;;;;0.10;0.10;;;20.10;85.40;;;21.16;73.26;101359.78;2029305;29;20052;-73
2022/08/03 03:00:33;;;;;;;0.10;0.10;;;20.10;85.40;;;21.16;73.33;101359.78;2028871;29;20079;-74
2022/08/03 03:01:39;;;;;;;0.10;0.10;;;20.10;85.40;;;21.14;73.02;101358.59;2027221;29;20063;-73
2022/08/03 03:02:44;;;;;;;0.10;0.10;;;20.10;85.40;;;21.10;73.19;101361.38;2021718;29;20115;-73
2022/08/03 03:03:49;;;;;;;0.10;0.10;;;20.10;86.00;;;21.07;73.24;101353.16;2028016;29;20056;-76
2022/08/03 03:04:54;;;;;;;0.10;0.10;;;20.10;85.40;;;21.04;73.39;101351.97;2028735;29;20777;-76
2022/08/03 03:06:18;;;;;;;0.10;0.10;;;20.00;85.40;;;21.04;73.69;101357.47;2024811;29;20179;-76
2022/08/03 03:07:24;;;;;;;0.10;0.10;;;20.10;85.50;;;21.00;73.71;101350.41;2021173;29;20390;-76
2022/08/03 03:08:31;;;;;;;0.10;0.10;;;20.00;85.40;;;21.00;73.33;101347.69;2028760;29;20052;-76
2022/08/03 03:09:36;;;;;;;0.15;0.15;;;20.00;85.40;;;20.97;73.62;101349.28;2028086;29;20146;-76
2022/08/03 03:10:44;;;;;;;0.10;0.10;;;20.00;85.40;;;20.95;73.55;101354.34;2028558;29;20413;-76
2022/08/03 03:11:49;;;;;;;0.10;0.10;;;20.00;85.40;;;20.94;73.46;101346.50;2029605;29;20055;-76
2022/08/03 03:12:57;;;;;;;0.10;0.10;;;20.00;85.50;;;20.94;73.64;101349.25;2029870;29;20492;-76
2022/08/03 03:14:00;;;;;;;0.10;0.10;;;20.00;85.50;;;20.94;73.51;101349.25;2029704;29;20052;-76
2022/08/03 03:15:05;;;;;;;0.10;0.10;;;20.00;85.50;;;20.93;73.84;101345.69;2029840;29;20059;-76
2022/08/03 03:16:10;;;;;;;0.10;0.10;;;20.00;85.60;;;20.95;73.84;101343.34;2028594;29;20092;-77
2022/08/03 03:17:16;;;;;;;0.10;0.10;;;20.00;85.70;;;20.98;73.74;101350.06;2028368;29;20060;-77
2022/08/03 03:18:21;;;;;;;0.10;0.10;;;19.90;85.70;;;21.00;73.52;101356.69;2014909;29;20502;-77
2022/08/03 03:19:26;;;;;;;0.10;0.10;;;19.90;85.70;;;20.98;73.44;101352.81;2022373;29;20116;-76
2022/08/03 03:20:31;;;;;;;0.10;0.10;;;19.90;85.70;;;21.01;73.32;101361.00;2035874;29;20083;-75
2022/08/03 03:21:35;;;;;;;0.10;0.10;;;19.90;85.80;;;20.99;73.65;101368.88;2028321;29;20528;-75
2022/08/03 03:22:39;;;;;;;0.10;0.10;;;19.90;85.80;;;21.00;73.84;101364.94;2037426;29;20085;-76
2022/08/03 03:23:48;;;;;;;0.10;0.10;;;19.90;85.80;;;21.00;73.51;101367.69;2029430;29;20056;-77
2022/08/03 03:24:53;;;;;;;0.10;0.10;;;19.90;85.70;;;20.99;73.60;101360.63;2029286;29;20060;-76
2022/08/03 03:25:57;;;;;;;0.10;0.10;;;19.90;85.70;;;20.99;73.67;101365.34;2030477;29;20500;-76
2022/08/03 03:27:00;;;;;;;0.10;0.10;;;19.90;85.70;;;21.00;73.36;101361.41;2022757;29;20066;-75
2022/08/03 03:28:05;;;;;;;0.10;0.10;;;19.90;85.70;;;21.00;73.37;101361.41;2023851;29;20048;-76
2022/08/03 03:29:08;;;;;;;0.10;0.10;;;19.90;85.80;;;21.00;73.45;101359.44;2030422;29;20063;-75
2022/08/03 03:30:13;;;;;;;0.10;0.10;;;19.90;85.80;;;20.97;73.92;101357.50;2031472;29;20736;-76
2022/08/03 03:31:16;;;;;;;0.10;0.10;;;19.90;85.90;;;20.97;73.51;101367.69;2031870;29;20423;-76
2022/08/03 03:32:19;;;;;;;0.10;0.10;;;19.90;85.90;;;20.96;73.77;101355.94;2031642;29;20064;-76
2022/08/03 03:33:24;;;;;;;0.10;0.10;;;19.80;85.90;;;20.99;73.55;101365.34;2032382;29;20056;-76
2022/08/03 03:34:31;;;;;;;0.10;0.10;;;19.80;86.00;;;21.01;73.22;101363.75;2038686;29;20147;-76
2022/08/03 03:35:34;;;;;;;0.10;0.10;;;19.80;86.10;;;21.01;73.22;101363.75;2037567;29;21430;-76
2022/08/03 03:36:41;;;;;;;0.00;0.00;;;19.90;86.10;;;21.00;73.65;101370.44;2038652;29;20051;-76
2022/08/03 03:37:47;;;;;;;0.10;0.10;;;19.80;86.00;;;20.99;73.65;101365.34;2031481;29;20183;-76
2022/08/03 03:38:51;;;;;;;0.10;0.10;;;19.80;86.60;;;20.99;73.83;101362.59;2023102;29;20071;-76
2022/08/03 03:39:55;;;;;;;0.20;0.20;;;19.80;86.10;;;20.96;73.50;101358.69;2031711;29;20152;-77
2022/08/03 03:40:59;;;;;;;0.20;0.20;;;19.80;86.20;;;20.94;73.69;101361.00;2038597;29;20400;-76
2022/08/03 03:42:02;;;;;;;0.10;0.10;;;19.80;86.20;;;20.94;73.61;101363.75;2038940;29;20143;-77
2022/08/03 03:43:09;;;;;;;0.10;0.10;;;19.80;86.30;;;20.94;73.85;101355.53;2038806;29;20134;-77
2022/08/03 03:44:11;;;;;;;0.10;0.10;;;19.80;86.80;;;20.95;73.99;101370.03;2031272;29;20087;-76
2022/08/03 03:45:16;;;;;;;0.13;0.13;;;19.80;86.20;;;20.93;73.82;101367.66;2031145;29;20060;-77
2022/08/03 03:46:18;;;;;;;0.10;0.10;;;19.80;86.20;;;20.92;73.60;101359.84;2029176;29;20092;-76
2022/08/03 03:47:22;;;;;;;0.10;0.10;;;19.80;86.30;;;20.92;73.58;101366.13;2029306;29;20055;-77
2022/08/03 03:48:36;;;;;;;0.10;0.10;;;19.80;86.30;;;20.94;73.54;101365.72;2038689;29;20570;-77
2022/08/03 03:49:42;;;;;;;0.10;0.10;;;19.80;86.40;;;20.95;73.46;101367.28;2039024;29;20058;-77
2022/08/03 03:50:46;;;;;;;0.10;0.10;;;19.80;86.40;;;20.93;73.66;101367.66;2031757;29;20543;-76
2022/08/03 03:51:51;;;;;;;0.10;0.10;;;19.80;86.40;;;20.95;73.50;101365.31;2024970;29;20060;-77
2022/08/03 03:52:55;;;;;;;0.10;0.10;;;19.80;86.30;;;20.96;73.57;101366.94;2032279;29;20052;-76
2022/08/03 03:53:59;;;;;;;0.10;0.10;;;19.80;86.40;;;20.96;73.73;101372.41;2037753;29;20055;-76
2022/08/03 03:55:02;;;;;;;0.10;0.10;;;19.80;86.40;;;20.97;73.53;101365.75;2038046;29;20055;-76
2022/08/03 03:56:05;;;;;;;0.10;0.10;;;19.80;86.40;;;20.96;73.38;101361.44;2024001;29;20623;-77
2022/08/03 03:57:10;;;;;;;0.10;0.10;;;19.80;86.50;;;20.95;73.63;101365.31;2022665;29;20143;-76
2022/08/03 03:58:14;;;;;;;0.10;0.10;;;19.70;86.50;;;20.93;74.00;101364.91;2022909;29;20156;-76
2022/08/03 03:59:18;;;;;;;0.10;0.10;;;19.70;86.50;;;20.92;73.73;101368.84;2022874;29;20095;-76
2022/08/03 04:00:21;;;;;;;0.10;0.10;;;19.70;86.50;;;20.88;73.82;101370.06;2036735;29;20055;-77
2022/08/03 04:01:24;;;;;;;0.17;0.15;;;19.70;86.60;;;20.89;74.01;101361.41;2038643;29;20051;-77
2022/08/03 04:02:27;;;;;;;0.10;0.10;;;19.70;86.60;;;20.89;73.72;101372.41;2038428;29;20083;-77
2022/08/03 04:03:30;;;;;;;0.20;0.20;;;19.70;86.70;;;20.91;74.00;101370.06;2029834;29;20059;-77
2022/08/03 04:11:32;;;;;;;0.10;0.10;;;19.60;86.80;;;20.78;73.68;101360.66;2032254;29;20055;-76
2022/08/03 04:12:37;;;;;;;0.10;0.10;;;19.60;86.80;;;20.76;74.18;101357.53;2031974;29;20060;-77
2022/08/03 04:13:57;;;;;;;0.10;0.10;;;19.60;86.80;;;20.76;73.96;101363.03;2039078;29;20055;-76
2022/08/03 04:15:05;;;;;;;0.10;0.10;;;19.60;86.80;;;20.76;73.80;101371.25;2039778;29;20091;-76
2022/08/03 04:16:12;;;;;;;0.10;0.10;;;19.60;86.80;;;20.77;73.94;101364.59;2038368;29;20679;-76
2022/08/03 04:17:15;;;;;;;0.10;0.10;;;19.70;86.90;;;20.74;74.22;101363.41;2039236;29;20134;-74
2022/08/03 04:18:21;;;;;;;0.10;0.10;;;19.60;86.80;;;20.73;74.25;101358.34;2040317;29;20055;-74
2022/08/03 04:19:32;;;;;;;0.20;0.20;;;19.60;86.80;;;20.73;74.52;101369.31;2030364;29;20124;-74
2022/08/03 04:20:39;;;;;;;0.13;0.13;;;19.60;86.90;;;20.71;74.20;101366.16;2023774;29;20053;-74
2022/08/03 04:21:47;;;;;;;0.20;0.20;;;19.60;87.00;;;20.68;74.25;101372.44;2031397;28;20468;-74
2022/08/03 04:22:51;;;;;;;0.20;0.20;;;19.60;87.00;;;20.69;74.54;101368.53;2031456;29;20095;-74
2022/08/03 04:24:00;;;;;;;0.10;0.10;;;19.60;87.00;;;20.69;74.71;101368.53;2032736;29;20064;-77
2022/08/03 04:25:09;;;;;;;0.20;0.20;;;19.60;87.00;;;20.67;74.53;101366.19;2039330;29;20492;-76
2022/08/03 04:26:15;;;;;;;0.20;0.20;;;19.60;87.10;;;20.72;74.38;101373.25;2031867;29;20052;-76
2022/08/03 04:27:23;;;;;;;0.20;0.20;;;19.60;87.10;;;20.71;74.35;101377.16;2032855;29;20059;-76
2022/08/03 04:28:26;;;;;;;0.10;0.10;;;19.60;87.10;;;20.71;74.77;101368.91;2030853;29;20123;-76
2022/08/03 04:29:37;;;;;;;0.10;0.10;;;19.60;87.10;;;20.71;74.37;101372.44;2038902;29;20086;-78
2022/08/03 04:30:52;;;;;;;0.10;0.10;;;19.60;87.20;;;20.70;74.30;101373.63;2040228;29;20114;-77
2022/08/03 04:31:59;;;;;;;0.10;0.10;;;19.60;87.20;;;20.71;74.46;101374.41;2040584;29;20051;-77
2022/08/03 04:33:02;;;;;;;0.10;0.10;;;19.60;87.10;;;20.72;74.53;101384.97;2039819;29;20502;-76
2022/08/03 04:34:08;;;;;;;0.13;0.13;;;19.60;87.10;;;20.74;74.65;101387.31;2033179;29;20052;-77
2022/08/03 04:35:11;;;;;;;0.10;0.10;;;19.60;87.20;;;20.73;74.26;101383.03;2033855;29;20052;-77
2022/08/03 04:36:21;;;;;;;0.10;0.10;;;19.60;87.10;;;20.75;74.70;101383.41;2040666;29;20511;-77
2022/08/03 04:37:38;;;;;;;0.10;0.10;;;19.70;87.10;;;20.77;74.28;101381.06;2038585;29;20047;-78
2022/08/03 04:38:59;;;;;;;0.13;0.13;;;19.70;87.10;;;20.78;74.27;101382.63;2039786;29;20507;-78
2022/08/03 04:40:08;;;;;;;0.10;0.10;;;19.60;87.10;;;20.81;74.33;101381.84;2039699;29;20059;-77
2022/08/03 04:41:12;;;;;;;0.15;0.15;;;19.70;87.10;;;20.80;73.75;101386.53;2031286;29;20516;-77
2022/08/03 04:42:17;;;;;;;0.20;0.20;;;19.60;87.10;;;20.80;74.46;101381.03;2023803;29;20883;-77
2022/08/03 04:43:21;;;;;;;0.10;0.10;;;19.60;87.10;;;20.77;74.39;101375.59;2032582;29;20599;-77
2022/08/03 04:44:27;;;;;;;0.20;0.20;;;19.60;87.10;;;20.81;74.15;101381.84;2031410;29;20048;-77
2022/08/03 04:45:31;;;;;;;0.10;0.10;;;19.60;87.20;;;20.80;74.20;101383.03;2032361;29;20047;-77
2022/08/03 04:46:38;;;;;;;0.10;0.10;;;19.60;87.20;;;20.80;74.68;101386.53;2032836;29;20492;-78
2022/08/03 04:47:49;;;;;;;0.10;0.10;;;19.60;87.20;;;20.83;74.12;101384.97;2034352;29;20059;-77